Time,TemperatureF,DewpointF,PressureIn,WindDirection,WindDirectionDegrees,WindSpeedMPH,WindSpeedGustMPH,Humidity,HourlyPrecipIn,Conditions,Clouds,dailyrainin,SoftwareType,DateUTC
2013-01-05 00:10:00,24.4,22.0,30.36,WSW,241,0.0,1.0,91,0.00,,,0.00,weatherlink.com 1.10,2013-01-05 06:10:00,
2013-01-05 00:25:00,24.1,22.0,30.35,WSW,241,0.0,0.0,92,0.00,,,0.00,weatherlink.com 1.10,2013-01-05 06:25:00,
2013-01-05 00:40:00,23.8,22.0,30.36,WSW,241,0.0,0.0,92,0.00,,,0.00,weatherlink.com 1.10,2013-01-05 06:40:00,
2013-01-05 00:55:00,23.8,22.0,30.36,WSW,241,0.0,1.0,93,0.00,,,0.00,weatherlink.com 1.10,2013-01-05 06:55:00,
2013-01-05 01:10:00,24.7,23.0,30.36,WSW,241,1.0,1.0,94,0.00,,,0.00,weatherlink.com 1.10,2013-01-05 07:10:00,
2013-01-05 01:25:00,26.1,25.0,30.36,WSW,241,0.0,2.0,94,0.00,,,0.00,weatherlink.com 1.10,2013-01-05 07:25:00,
2013-01-05 01:40:00,26.2,25.0,30.36,WSW,241,0.0,1.0,93,0.00,,,0.00,weatherlink.com 1.10,2013-01-05 07:40:00,
2013-01-05 01:55:00,25.6,24.0,30.36,WSW,241,0.0,1.0,93,0.00,,,0.00,weatherlink.com 1.10,2013-01-05 07:55:00,
2013-01-05 02:10:00,25.2,24.0,30.36,WSW,241,0.0,0.0,93,0.00,,,0.00,weatherlink.com 1.10,2013-01-05 08:10:00,
2013-01-05 02:25:00,24.0,22.0,30.36,WSW,241,0.0,0.0,92,0.00,,,0.00,weatherlink.com 1.10,2013-01-05 08:25:00,
2013-01-05 02:40:00,22.9,21.0,30.36,WSW,241,0.0,1.0,92,0.00,,,0.00,weatherlink.com 1.10,2013-01-05 08:40:00,
2013-01-05 02:55:00,23.1,21.0,30.36,WSW,241,0.0,1.0,93,0.00,,,0.00,weatherlink.com 1.10,2013-01-05 08:55:00,
2013-01-05 03:10:00,23.6,22.0,30.35,WSW,241,0.0,2.0,93,0.00,,,0.00,weatherlink.com 1.10,2013-01-05 09:10:00,
2013-01-05 03:25:00,23.3,22.0,30.35,WSW,241,0.0,1.0,93,0.00,,,0.00,weatherlink.com 1.10,2013-01-05 09:25:00,
2013-01-05 03:40:00,21.8,20.0,30.36,WSW,241,0.0,2.0,93,0.00,,,0.00,weatherlink.com 1.10,2013-01-05 09:40:00,
2013-01-05 03:55:00,22.0,20.0,30.36,WSW,241,1.0,1.0,93,0.00,,,0.00,weatherlink.com 1.10,2013-01-05 09:55:00,
2013-01-05 04:10:00,22.7,21.0,30.35,WSW,241,2.0,2.0,93,0.00,,,0.00,weatherlink.com 1.10,2013-01-05 10:10:00,
2013-01-05 04:25:00,24.6,23.0,30.34,WSW,241,0.0,2.0,95,0.00,,,0.00,weatherlink.com 1.10,2013-01-05 10:25:00,
2013-01-05 04:40:00,24.2,23.0,30.34,WSW,241,0.0,0.0,93,0.00,,,0.00,weatherlink.com 1.10,2013-01-05 10:40:00,
2013-01-05 04:55:00,24.0,22.0,30.34,WSW,241,0.0,0.0,93,0.00,,,0.00,weatherlink.com 1.10,2013-01-05 10:55:00,
2013-01-05 05:10:00,22.7,21.0,30.34,WSW,241,0.0,1.0,93,0.00,,,0.00,weatherlink.com 1.10,2013-01-05 11:10:00,
2013-01-05 05:25:00,22.7,21.0,30.34,WSW,241,1.0,2.0,93,0.00,,,0.00,weatherlink.com 1.10,2013-01-05 11:25:00,
2013-01-05 05:40:00,22.5,21.0,30.35,WSW,241,0.0,1.0,93,0.00,,,0.00,weatherlink.com 1.10,2013-01-05 11:40:00,
2013-01-05 05:55:00,23.1,22.0,30.35,WSW,241,0.0,1.0,94,0.00,,,0.00,weatherlink.com 1.10,2013-01-05 11:55:00,
2013-01-05 06:10:00,23.7,22.0,30.35,WSW,241,1.0,2.0,94,0.00,,,0.00,weatherlink.com 1.10,2013-01-05 12:10:00,
2013-01-05 06:25:00,24.9,23.0,30.35,WSW,241,1.0,2.0,93,0.00,,,0.00,weatherlink.com 1.10,2013-01-05 12:25:00,
2013-01-05 06:40:00,26.4,25.0,30.35,SSE,168,2.0,3.0,93,0.00,,,0.00,weatherlink.com 1.10,2013-01-05 12:40:00,
2013-01-05 06:55:00,26.9,25.0,30.35,SSE,168,1.0,3.0,93,0.00,,,0.00,weatherlink.com 1.10,2013-01-05 12:55:00,
2013-01-05 07:10:00,-999.0,-99.9,30.35,North,-999,-999.0,-999.0,-999,0.00,,,0.00,weatherlink.com 1.10,2013-01-05 13:10:00,
2013-01-05 07:25:00,-999.0,-99.9,30.35,North,-999,-999.0,-999.0,-999,0.00,,,0.00,weatherlink.com 1.10,2013-01-05 13:25:00,
2013-01-05 07:41:00,-999.0,-99.9,30.35,North,-999,-999.0,-999.0,-999,0.00,,,0.00,weatherlink.com 1.10,2013-01-05 13:41:00,
2013-01-05 07:56:00,28.9,26.0,30.35,SSE,168,1.0,2.0,88,0.00,,,0.00,weatherlink.com 1.10,2013-01-05 13:56:00,
2013-01-05 08:11:00,29.8,26.0,30.35,SSE,168,0.0,2.0,87,0.00,,,0.00,weatherlink.com 1.10,2013-01-05 14:11:00,
2013-01-05 08:26:00,30.7,27.0,30.35,SSE,168,3.0,4.0,85,0.00,,,0.00,weatherlink.com 1.10,2013-01-05 14:26:00,
2013-01-05 08:41:00,32.9,28.0,30.36,South,171,5.0,7.0,82,0.00,,,0.00,weatherlink.com 1.10,2013-01-05 14:41:00,
2013-01-05 08:56:00,33.8,28.0,30.36,South,178,4.0,7.0,80,0.00,,,0.00,weatherlink.com 1.10,2013-01-05 14:56:00,
2013-01-05 09:11:00,35.2,29.0,30.37,SSW,202,3.0,7.0,78,0.00,,,0.00,weatherlink.com 1.10,2013-01-05 15:11:00,
2013-01-05 09:26:00,36.7,29.0,30.36,South,181,4.0,10.0,75,0.00,,,0.00,weatherlink.com 1.10,2013-01-05 15:26:00,
2013-01-05 09:41:00,37.8,31.0,30.36,SW,215,9.0,10.0,75,0.00,,,0.00,weatherlink.com 1.10,2013-01-05 15:41:00,
2013-01-05 09:56:00,38.7,31.0,30.35,SW,215,5.0,9.0,74,0.00,,,0.00,weatherlink.com 1.10,2013-01-05 15:56:00,
2013-01-05 10:11:00,39.1,31.0,30.35,SSW,207,2.0,7.0,74,0.00,,,0.00,weatherlink.com 1.10,2013-01-05 16:11:00,
2013-01-05 10:26:00,39.2,32.0,30.35,South,177,5.0,8.0,74,0.00,,,0.00,weatherlink.com 1.10,2013-01-05 16:26:00,
2013-01-05 10:41:00,38.8,32.0,30.34,South,180,1.0,7.0,75,0.00,,,0.00,weatherlink.com 1.10,2013-01-05 16:41:00,
2013-01-05 10:56:00,39.1,32.0,30.33,SSW,203,4.0,9.0,75,0.00,,,0.00,weatherlink.com 1.10,2013-01-05 16:56:00,
2013-01-05 11:11:00,39.1,32.0,30.33,SW,221,2.0,8.0,75,0.00,,,0.00,weatherlink.com 1.10,2013-01-05 17:11:00,
2013-01-05 11:26:00,38.9,32.0,30.32,SSW,212,3.0,8.0,76,0.00,,,0.00,weatherlink.com 1.10,2013-01-05 17:26:00,
2013-01-05 11:41:00,39.0,32.0,30.31,SSW,210,3.0,8.0,77,0.00,,,0.00,weatherlink.com 1.10,2013-01-05 17:41:00,
2013-01-05 11:56:00,38.7,33.0,30.30,SSW,199,3.0,9.0,79,0.00,,,0.00,weatherlink.com 1.10,2013-01-05 17:56:00,
2013-01-05 12:11:00,38.8,33.0,30.29,South,175,5.0,7.0,81,0.00,,,0.00,weatherlink.com 1.10,2013-01-05 18:11:00,
2013-01-05 12:26:00,39.0,33.0,30.28,South,183,7.0,10.0,79,0.00,,,0.00,weatherlink.com 1.10,2013-01-05 18:26:00,
2013-01-05 12:41:00,39.2,33.0,30.27,South,186,0.0,7.0,79,0.00,,,0.00,weatherlink.com 1.10,2013-01-05 18:41:00,
2013-01-05 12:56:00,39.5,34.0,30.25,South,186,1.0,5.0,79,0.00,,,0.00,weatherlink.com 1.10,2013-01-05 18:56:00,
2013-01-05 13:11:00,39.8,34.0,30.25,SSW,213,5.0,9.0,79,0.00,,,0.00,weatherlink.com 1.10,2013-01-05 19:11:00,
2013-01-05 13:26:00,39.8,34.0,30.24,SSW,203,4.0,12.0,79,0.00,,,0.00,weatherlink.com 1.10,2013-01-05 19:26:00,
2013-01-05 13:41:00,40.0,34.0,30.24,South,181,3.0,8.0,79,0.00,,,0.00,weatherlink.com 1.10,2013-01-05 19:41:00,
2013-01-05 13:56:00,39.5,34.0,30.24,SSW,209,6.0,11.0,82,0.00,,,0.00,weatherlink.com 1.10,2013-01-05 19:56:00,
2013-01-05 14:11:00,39.8,34.0,30.24,South,191,8.0,8.0,81,0.00,,,0.00,weatherlink.com 1.10,2013-01-05 20:11:00,
2013-01-05 14:26:00,39.4,34.0,30.23,South,178,6.0,9.0,81,0.00,,,0.00,weatherlink.com 1.10,2013-01-05 20:26:00,
2013-01-05 14:41:00,39.3,34.0,30.22,South,171,4.0,8.0,81,0.00,,,0.00,weatherlink.com 1.10,2013-01-05 20:41:00,
2013-01-05 14:57:00,39.6,34.0,30.22,South,180,5.0,8.0,79,0.00,,,0.00,weatherlink.com 1.10,2013-01-05 20:57:00,
2013-01-05 15:12:00,39.6,34.0,30.22,SSE,161,4.0,7.0,79,0.00,,,0.00,weatherlink.com 1.10,2013-01-05 21:12:00,
2013-01-05 15:27:00,39.5,34.0,30.22,SSE,161,5.0,8.0,79,0.00,,,0.00,weatherlink.com 1.10,2013-01-05 21:27:00,
2013-01-05 15:42:00,39.2,33.0,30.22,South,170,5.0,7.0,79,0.00,,,0.00,weatherlink.com 1.10,2013-01-05 21:42:00,
2013-01-05 15:57:00,39.1,33.0,30.21,SSE,166,3.0,6.0,79,0.00,,,0.00,weatherlink.com 1.10,2013-01-05 21:57:00,
2013-01-05 16:12:00,38.9,33.0,30.22,SSE,166,2.0,6.0,79,0.00,,,0.00,weatherlink.com 1.10,2013-01-05 22:12:00,
2013-01-05 16:27:00,38.4,33.0,30.22,SSE,166,3.0,4.0,81,0.00,,,0.00,weatherlink.com 1.10,2013-01-05 22:27:00,
2013-01-05 16:42:00,38.1,33.0,30.22,SSE,166,4.0,5.0,81,0.00,,,0.00,weatherlink.com 1.10,2013-01-05 22:42:00,
2013-01-05 16:57:00,37.9,33.0,30.22,SSE,166,2.0,6.0,81,0.00,,,0.00,weatherlink.com 1.10,2013-01-05 22:57:00,
2013-01-05 17:12:00,37.9,33.0,30.22,SSE,167,5.0,6.0,82,0.00,,,0.00,weatherlink.com 1.10,2013-01-05 23:12:00,
2013-01-05 17:27:00,38.2,33.0,30.23,South,191,8.0,8.0,81,0.00,,,0.00,weatherlink.com 1.10,2013-01-05 23:27:00,
2013-01-05 17:42:00,38.2,33.0,30.22,South,173,6.0,9.0,81,0.00,,,0.00,weatherlink.com 1.10,2013-01-05 23:42:00,
2013-01-05 17:57:00,38.3,33.0,30.21,South,169,5.0,10.0,81,0.00,,,0.00,weatherlink.com 1.10,2013-01-05 23:57:00,
2013-01-05 18:12:00,38.4,33.0,30.22,South,176,5.0,9.0,81,0.00,,,0.00,weatherlink.com 1.10,2013-01-06 00:12:00,
2013-01-05 18:27:00,38.4,33.0,30.22,South,176,7.0,9.0,81,0.00,,,0.00,weatherlink.com 1.10,2013-01-06 00:27:00,
2013-01-05 18:42:00,38.2,33.0,30.22,South,187,6.0,11.0,82,0.00,,,0.00,weatherlink.com 1.10,2013-01-06 00:42:00,
2013-01-05 18:57:00,38.3,34.0,30.22,South,177,6.0,10.0,83,0.00,,,0.00,weatherlink.com 1.10,2013-01-06 00:57:00,
2013-01-05 19:12:00,38.3,34.0,30.22,South,182,9.0,10.0,83,0.00,,,0.00,weatherlink.com 1.10,2013-01-06 01:12:00,
2013-01-05 19:27:00,38.2,34.0,30.22,South,183,7.0,9.0,83,0.00,,,0.00,weatherlink.com 1.10,2013-01-06 01:27:00,
2013-01-05 19:41:00,38.2,34.0,30.22,SSW,192,3.0,8.0,84,0.00,,,0.00,weatherlink.com 1.10,2013-01-06 01:41:00,
2013-01-05 19:57:00,38.2,34.0,30.21,South,184,6.0,9.0,84,0.00,,,0.00,weatherlink.com 1.10,2013-01-06 01:57:00,
2013-01-05 20:12:00,38.0,34.0,30.21,South,188,8.0,9.0,84,0.00,,,0.00,weatherlink.com 1.10,2013-01-06 02:12:00,
2013-01-05 20:27:00,38.4,34.0,30.21,SSW,201,3.0,8.0,84,0.00,,,0.00,weatherlink.com 1.10,2013-01-06 02:27:00,
2013-01-05 20:42:00,38.4,34.0,30.20,South,184,5.0,8.0,84,0.00,,,0.00,weatherlink.com 1.10,2013-01-06 02:42:00,
2013-01-05 20:57:00,38.4,34.0,30.20,SSW,193,5.0,11.0,84,0.00,,,0.00,weatherlink.com 1.10,2013-01-06 02:57:00,
2013-01-05 21:12:00,38.3,34.0,30.19,SSE,163,9.0,11.0,85,0.00,,,0.00,weatherlink.com 1.10,2013-01-06 03:12:00,
2013-01-05 21:27:00,38.3,34.0,30.19,SSW,204,10.0,10.0,85,0.00,,,0.00,weatherlink.com 1.10,2013-01-06 03:27:00,
2013-01-05 21:42:00,38.5,34.0,30.19,SSW,209,5.0,12.0,84,0.00,,,0.00,weatherlink.com 1.10,2013-01-06 03:42:00,
2013-01-05 21:57:00,38.7,34.0,30.19,South,186,6.0,9.0,84,0.00,,,0.00,weatherlink.com 1.10,2013-01-06 03:57:00,
2013-01-05 22:12:00,38.8,34.0,30.19,SSW,211,3.0,8.0,84,0.00,,,0.00,weatherlink.com 1.10,2013-01-06 04:12:00,
2013-01-05 22:27:00,38.9,35.0,30.19,SW,220,6.0,8.0,84,0.00,,,0.00,weatherlink.com 1.10,2013-01-06 04:27:00,
2013-01-05 22:42:00,38.9,35.0,30.19,SSW,199,4.0,9.0,84,0.00,,,0.00,weatherlink.com 1.10,2013-01-06 04:42:00,
2013-01-05 22:57:00,38.8,34.0,30.19,SSW,200,5.0,6.0,84,0.00,,,0.00,weatherlink.com 1.10,2013-01-06 04:57:00,
2013-01-05 23:13:00,38.9,35.0,30.18,South,184,4.0,9.0,84,0.00,,,0.00,weatherlink.com 1.10,2013-01-06 05:13:00,
2013-01-05 23:27:00,39.1,35.0,30.18,SSW,192,7.0,10.0,84,0.00,,,0.00,weatherlink.com 1.10,2013-01-06 05:27:00,
2013-01-05 23:42:00,39.3,35.0,30.17,SSW,198,5.0,9.0,84,0.00,,,0.00,weatherlink.com 1.10,2013-01-06 05:42:00,
2013-01-05 23:57:00,39.5,35.0,30.17,SSW,205,4.0,10.0,84,0.00,,,0.00,weatherlink.com 1.10,2013-01-06 05:57:00,